CKQ8 weather

McArthur River Airport
Mcarthur River, Saskatchewan, Canada

Public forecast

Using degrees Celsius for public forecast. Weather courtesy of forecast.io.

Closest aviation weather report (METAR) to McArthur River Airport

Closest report is Key Lake Airport, 36.2 nm (67.0 km) SSW. Retrieved 2020/07/15 12:08 UTC (28 seconds ago):

CYKJ 151208Z AUTO 28015KT 2SM -RA BR OVC007 13/13 A2937 RMK SLP956 DENSITY ALT 2400FT

Closest aviation forecast (TAF) to McArthur River Airport

Closest forecast is Key Lake Airport, 36.2 nm (67.0 km) SSW. Retrieved 2020/07/15 10:39 UTC (1 hour ago):

TAF TAF CYKJ 150938Z 1510/1522 28012G22KT 2SM -RA BR BKN005 OVC012 TEMPO 1510/1516 P6SM NSW SCT005 OVC012 FM151600 29015G25KT P6SM SCT015 BKN040 TEMPO 1516/1522 4SM -SHRA BR VCTS BKN015 BKN040 RMK FCST BASED ON AUTO OBS NXT FCST BY 151300Z